createdAt,value
2024-02-02T04:32:08.156Z,98391.53
2024-02-02T04:34:35.643Z,98385.84
2024-02-02T04:37:02.778Z,98399.72
2024-02-02T04:39:30.590Z,98413.56
2024-02-02T04:41:57.691Z,98410.69
2024-02-02T04:44:25.764Z,98414.78
2024-02-02T04:46:54.183Z,98421.31
2024-02-02T04:49:21.388Z,98420.06
2024-02-02T04:51:48.506Z,98422.53
2024-02-02T04:54:16.093Z,98422.34
2024-02-02T04:56:43.402Z,98415.19
2024-02-02T04:59:10.422Z,98417.84
2024-02-02T05:01:37.487Z,98420.31
2024-02-02T05:04:04.823Z,98416.00
2024-02-02T05:06:32.148Z,98421.72
2024-02-02T05:08:59.626Z,98421.31
2024-02-02T05:11:26.672Z,98415.59
2024-02-02T05:13:53.657Z,98414.38
2024-02-02T05:16:21.971Z,98422.53
2024-02-02T05:18:49.292Z,98409.03
2024-02-02T05:21:16.450Z,98419.13
2024-02-02T05:23:49.213Z,98417.03
2024-02-02T05:26:18.719Z,98418.09
2024-02-02T05:28:46.842Z,98410.88
2024-02-02T05:31:13.992Z,98431.59
2024-02-02T05:33:42.715Z,98426.56
2024-02-02T05:36:11.971Z,98431.06
2024-02-02T05:38:39.584Z,98424.34
2024-02-02T05:41:06.987Z,98425.00
2024-02-02T05:43:34.300Z,98423.56
2024-02-02T05:46:01.396Z,98422.53
2024-02-02T05:48:28.484Z,98421.91
2024-02-02T05:50:55.768Z,98427.03
2024-02-02T05:53:22.909Z,98424.75
2024-02-02T05:55:50.051Z,98423.56
2024-02-02T05:58:17.160Z,98429.06
2024-02-02T06:00:44.267Z,98426.59
2024-02-02T06:03:11.330Z,98428.25
2024-02-02T06:05:38.602Z,98430.69
2024-02-02T06:08:07.768Z,98433.56
2024-02-02T06:10:35.263Z,98440.09
2024-02-02T06:13:02.340Z,98423.53
2024-02-02T06:15:29.452Z,98424.16
2024-02-02T06:17:57.156Z,98421.28
2024-02-02T06:20:24.306Z,98409.88
2024-02-02T06:22:51.419Z,98418.88
2024-02-02T06:25:19.016Z,98410.69
2024-02-02T06:27:46.192Z,98397.66
2024-02-02T06:30:14.432Z,98405.81
2024-02-02T06:32:42.738Z,98409.06
2024-02-02T06:35:10.295Z,98425.38
2024-02-02T06:37:37.441Z,98426.63
2024-02-02T06:40:05.687Z,98422.34
2024-02-02T06:42:33.346Z,98430.09
2024-02-02T06:45:00.533Z,98429.44
2024-02-02T06:47:27.743Z,98427.03
2024-02-02T06:49:54.964Z,98431.50
2024-02-02T06:52:23.009Z,98430.47
2024-02-02T06:54:50.250Z,98438.25
2024-02-02T06:57:18.406Z,98435.19
2024-02-02T06:59:45.556Z,98433.13
2024-02-02T07:02:20.048Z,98438.84
2024-02-02T07:04:47.843Z,98450.66
2024-02-02T07:07:14.991Z,98452.91
2024-02-02T07:09:43.775Z,98462.69
2024-02-02T07:12:11.230Z,98460.59
2024-02-02T07:14:44.398Z,98460.22
2024-02-02T07:17:41.106Z,98460.22
2024-02-02T07:20:18.451Z,98464.97
2024-02-02T07:22:45.427Z,98464.53
2024-02-02T07:25:13.537Z,98458.41
2024-02-02T07:27:52.566Z,98461.28
2024-02-02T07:30:46.037Z,98458.81
2024-02-02T07:33:22.185Z,98467.38
2024-02-02T07:35:49.329Z,98464.50
2024-02-02T07:38:51.020Z,98460.56
2024-02-02T07:41:18.978Z,98456.69
2024-02-02T07:43:46.191Z,98461.41
2024-02-02T07:46:15.921Z,98450.75
2024-02-02T07:48:44.343Z,98451.69
2024-02-02T07:51:12.837Z,98441.69
2024-02-02T07:53:40.273Z,98450.91
2024-02-02T07:56:07.530Z,98450.16
2024-02-02T07:58:34.550Z,98439.53
2024-02-02T08:01:01.631Z,98434.97
2024-02-02T08:03:29.060Z,98438.63
2024-02-02T08:05:56.505Z,98444.75
2024-02-02T08:08:23.672Z,98450.44
2024-02-02T08:10:50.912Z,98442.09
2024-02-02T08:13:19.764Z,98448.94
2024-02-02T08:15:46.935Z,98452.69
2024-02-02T08:18:14.194Z,98442.88
2024-02-02T08:20:41.465Z,98444.00
2024-02-02T08:23:08.489Z,98443.25
2024-02-02T08:25:35.677Z,98443.13
2024-02-02T08:28:03.038Z,98441.56
2024-02-02T08:30:30.271Z,98448.91
2024-02-02T08:32:57.567Z,98440.44
2024-02-02T08:35:26.400Z,98447.63
2024-02-02T08:37:56.745Z,98452.97
2024-02-02T08:40:39.635Z,98429.41
2024-02-02T08:43:22.673Z,98430.78
2024-02-02T08:46:10.803Z,98426.94
2024-02-02T08:48:39.837Z,98430.09
2024-02-02T08:51:24.659Z,98433.66
2024-02-02T08:54:36.343Z,98429.09
2024-02-02T08:57:12.916Z,98426.06
2024-02-02T08:59:44.468Z,98424.22
2024-02-02T09:02:23.094Z,98431.16
2024-02-02T09:05:10.650Z,98430.94
2024-02-02T09:07:37.897Z,98418.97
2024-02-02T09:10:32.987Z,98416.56
2024-02-02T09:13:02.162Z,98408.00
2024-02-02T09:15:35.192Z,98408.84
2024-02-02T09:18:02.507Z,98408.69
2024-02-02T09:20:51.035Z,98409.94
2024-02-02T09:23:18.220Z,98398.34
2024-02-02T09:25:46.093Z,98412.09
2024-02-02T09:28:42.756Z,98410.56
2024-02-02T09:31:13.072Z,98421.28
2024-02-02T09:33:47.185Z,98424.34
2024-02-02T09:36:14.645Z,98428.19
2024-02-02T09:38:43.130Z,98429.50
2024-02-02T09:41:52.108Z,98428.47
2024-02-02T09:44:29.980Z,98430.41
2024-02-02T09:47:00.893Z,98443.38
2024-02-02T09:49:41.407Z,98431.38
2024-02-02T09:52:33.279Z,98443.03
2024-02-02T09:55:08.137Z,98446.41
2024-02-02T09:57:46.918Z,98450.44
2024-02-02T10:00:33.604Z,98438.31
2024-02-02T10:03:09.101Z,98445.50
2024-02-02T10:06:19.386Z,98436.38
2024-02-02T10:08:49.226Z,98435.81
2024-02-02T10:11:25.312Z,98440.28
2024-02-02T10:14:00.700Z,98442.31
2024-02-02T10:16:36.152Z,98445.78
2024-02-02T10:19:23.434Z,98440.34
2024-02-02T10:22:37.090Z,98429.13
2024-02-02T10:25:07.353Z,98427.47
2024-02-02T10:27:54.071Z,98450.66
2024-02-02T10:31:00.517Z,98451.66
2024-02-02T10:33:39.572Z,98456.78
2024-02-02T10:36:37.645Z,98448.84
2024-02-02T10:39:29.972Z,98440.28
2024-02-02T10:42:20.497Z,98440.38
2024-02-02T10:45:11.093Z,98442.72
2024-02-02T10:48:07.210Z,98427.41
2024-02-02T10:50:41.258Z,98430.19
2024-02-02T10:53:29.471Z,98430.84
2024-02-02T10:56:15.544Z,98439.94
2024-02-02T10:59:50.251Z,98426.78
2024-02-02T11:02:41.879Z,98425.41
2024-02-02T11:05:24.895Z,98426.22
2024-02-02T11:07:55.300Z,98421.50
2024-02-02T11:10:24.927Z,98418.19
2024-02-02T11:12:58.848Z,98405.91
2024-02-02T11:15:47.097Z,98394.41
2024-02-02T11:18:33.448Z,98391.53
2024-02-02T11:21:28.196Z,98365.03
2024-02-02T11:24:23.085Z,98377.75
2024-02-02T11:27:22.571Z,98369.94
2024-02-02T11:29:49.541Z,98366.38
2024-02-02T11:32:28.723Z,98360.31
2024-02-02T11:35:37.047Z,98364.69
2024-02-02T11:38:42.573Z,98348.66
2024-02-02T11:41:17.244Z,98353.47
2024-02-02T11:43:45.695Z,98346.97
2024-02-02T11:46:13.994Z,98345.50
2024-02-02T11:48:42.513Z,98341.06
2024-02-02T11:51:10.694Z,98344.78
2024-02-02T11:54:33.581Z,98340.31
2024-02-02T11:57:00.918Z,98344.13
2024-02-02T11:59:33.384Z,98337.38
2024-02-02T12:02:37.420Z,98346.22
2024-02-02T12:05:12.967Z,98334.38
2024-02-02T12:07:40.112Z,98316.78
2024-02-02T12:10:09.480Z,98326.41
2024-02-02T12:12:44.684Z,98330.84
2024-02-02T12:15:12.276Z,98312.25
2024-02-02T12:17:40.077Z,98312.66
2024-02-02T12:20:10.535Z,98306.94
2024-02-02T12:22:37.865Z,98319.34
2024-02-02T12:25:05.823Z,98308.72
2024-02-02T12:27:33.164Z,98309.34
2024-02-02T12:30:00.690Z,98305.34
2024-02-02T12:32:27.839Z,98300.97
2024-02-02T12:34:54.951Z,98290.84
2024-02-02T12:37:22.103Z,98299.41
2024-02-02T12:39:53.087Z,98294.63
2024-02-02T12:42:23.657Z,98291.28
2024-02-02T12:44:51.621Z,98294.09
2024-02-02T12:47:26.739Z,98280.72
2024-02-02T12:49:56.059Z,98273.91
2024-02-02T12:52:23.944Z,98263.78
2024-02-02T12:54:52.704Z,98263.69
2024-02-02T12:57:19.857Z,98251.88
2024-02-02T12:59:47.163Z,98251.00
2024-02-02T13:02:15.045Z,98237.75
2024-02-02T13:04:42.614Z,98240.66
2024-02-02T13:07:09.802Z,98228.84
2024-02-02T13:09:39.703Z,98227.66
2024-02-02T13:12:08.429Z,98224.78
2024-02-02T13:14:36.936Z,98223.31
2024-02-02T13:17:10.432Z,98226.25
2024-02-02T13:19:40.078Z,98220.75
2024-02-02T13:22:22.853Z,98226.06
2024-02-02T13:24:51.289Z,98219.13
2024-02-02T13:27:20.235Z,98224.56
2024-02-02T13:29:52.955Z,98212.69
2024-02-02T13:32:21.050Z,98210.19
2024-02-02T13:34:48.405Z,98203.66
2024-02-02T13:37:30.973Z,98206.16
2024-02-02T13:40:00.029Z,98208.38
2024-02-02T13:42:27.731Z,98199.88
2024-02-02T13:44:54.768Z,98196.16
2024-02-02T13:47:22.099Z,98190.69
2024-02-02T13:49:53.854Z,98187.69
2024-02-02T13:52:21.070Z,98197.66
2024-02-02T13:54:48.679Z,98192.72
2024-02-02T13:57:16.869Z,98188.19
2024-02-02T13:59:44.270Z,98189.78
2024-02-02T14:02:11.558Z,98193.16
2024-02-02T14:04:38.716Z,98186.06
2024-02-02T14:07:15.840Z,98174.03
2024-02-02T14:09:43.513Z,98185.63
2024-02-02T14:12:11.037Z,98178.06
2024-02-02T14:14:38.155Z,98184.00
2024-02-02T14:17:05.835Z,98180.03
2024-02-02T14:19:33.630Z,98190.38
2024-02-02T14:22:08.104Z,98183.34
2024-02-02T14:24:45.626Z,98184.38
2024-02-02T14:27:12.760Z,98181.94
2024-02-02T14:29:43.540Z,98178.47
2024-02-02T14:32:11.506Z,98186.19
2024-02-02T14:34:38.802Z,98180.56
2024-02-02T14:37:05.895Z,98174.50
2024-02-02T14:39:33.118Z,98178.00
2024-02-02T14:42:00.982Z,98182.88
2024-02-02T14:44:29.936Z,98184.47
2024-02-02T14:46:57.811Z,98173.47
2024-02-02T14:49:27.097Z,98174.28
2024-02-02T14:51:57.640Z,98171.97
2024-02-02T14:54:26.803Z,98166.19
2024-02-02T14:56:53.989Z,98159.34
2024-02-02T14:59:24.757Z,98173.72
2024-02-02T15:01:52.308Z,98166.38
2024-02-02T15:04:20.172Z,98162.22
2024-02-02T15:06:47.261Z,98160.00
2024-02-02T15:09:15.458Z,98157.22
2024-02-02T15:11:43.237Z,98161.41
2024-02-02T15:14:10.655Z,98160.94
2024-02-02T15:16:37.968Z,98157.38
2024-02-02T15:19:05.402Z,98160.38
2024-02-02T15:21:33.099Z,98160.75
2024-02-02T15:24:00.419Z,98161.44
2024-02-02T15:26:27.584Z,98155.75
2024-02-02T15:28:54.673Z,98150.78
2024-02-02T15:31:21.745Z,98146.38
2024-02-02T15:33:49.083Z,98149.41
2024-02-02T15:36:16.889Z,98149.28
2024-02-02T15:38:59.998Z,98141.84
2024-02-02T15:41:31.096Z,98145.84
2024-02-02T15:43:58.284Z,98139.16
2024-02-02T15:46:25.484Z,98136.19
2024-02-02T15:48:53.177Z,98136.28
2024-02-02T15:51:21.173Z,98141.75
2024-02-02T15:53:48.295Z,98142.91
2024-02-02T15:56:16.850Z,98144.28
2024-02-02T15:58:44.530Z,98147.09
2024-02-02T16:01:13.265Z,98157.44
2024-02-02T16:03:41.814Z,98153.00
2024-02-02T16:06:10.346Z,98139.78
2024-02-02T16:08:37.931Z,98138.72
2024-02-02T16:11:05.666Z,98137.94
2024-02-02T16:13:32.983Z,98136.50
2024-02-02T16:16:00.402Z,98136.09
2024-02-02T16:18:27.657Z,98136.91
2024-02-02T16:20:55.087Z,98137.25
2024-02-02T16:23:22.316Z,98145.88
2024-02-02T16:25:49.433Z,98144.53
2024-02-02T16:28:16.545Z,98143.56
2024-02-02T16:30:43.896Z,98143.03
2024-02-02T16:33:11.122Z,98145.47
2024-02-02T16:35:38.715Z,98147.78
2024-02-02T16:38:05.822Z,98155.19
2024-02-02T16:40:32.908Z,98151.41
2024-02-02T16:43:00.059Z,98153.78
2024-02-02T16:45:27.092Z,98152.16
2024-02-02T16:47:54.772Z,98158.06
2024-02-02T16:50:22.192Z,98160.19
2024-02-02T16:52:49.239Z,98166.38
2024-02-02T16:55:16.382Z,98151.94
2024-02-02T16:57:43.546Z,98166.53
2024-02-02T17:00:12.582Z,98174.31
2024-02-02T17:02:39.774Z,98171.72
2024-02-02T17:05:07.265Z,98166.63
2024-02-02T17:07:34.422Z,98167.22
2024-02-02T17:10:01.560Z,98173.13
2024-02-02T17:12:28.734Z,98172.59
2024-02-02T17:14:56.005Z,98173.69
2024-02-02T17:17:23.192Z,98166.66
2024-02-02T17:19:50.421Z,98168.94
2024-02-02T17:22:17.582Z,98170.22
2024-02-02T17:24:45.039Z,98163.03
2024-02-02T17:27:12.232Z,98171.44
2024-02-02T17:29:42.876Z,98167.19
2024-02-02T17:32:09.912Z,98164.06
2024-02-02T17:34:37.161Z,98173.63
2024-02-02T17:37:04.468Z,98174.19
2024-02-02T17:39:31.622Z,98175.31
2024-02-02T17:41:58.781Z,98174.22
2024-02-02T17:44:28.002Z,98181.75
2024-02-02T17:46:55.433Z,98176.50
2024-02-02T17:49:22.619Z,98176.03
2024-02-02T17:51:50.248Z,98172.31
2024-02-02T17:54:17.612Z,98172.66
2024-02-02T17:56:44.855Z,98168.59
2024-02-02T17:59:11.982Z,98168.28
2024-02-02T18:01:39.307Z,98172.03
2024-02-02T18:04:06.987Z,98173.13
2024-02-02T18:06:34.290Z,98171.38
2024-02-02T18:09:01.557Z,98160.25
2024-02-02T18:11:28.619Z,98169.81
2024-02-02T18:13:55.925Z,98161.66
2024-02-02T18:16:23.084Z,98166.28
2024-02-02T18:18:50.310Z,98159.72
2024-02-02T18:21:17.491Z,98166.56
2024-02-02T18:23:44.544Z,98167.63
2024-02-02T18:26:11.578Z,98159.00
2024-02-02T18:28:38.589Z,98165.63
2024-02-02T18:31:05.750Z,98155.09
2024-02-02T18:33:32.890Z,98155.03
2024-02-02T18:36:00.004Z,98147.88
2024-02-02T18:38:27.068Z,98149.69
2024-02-02T18:40:54.169Z,98152.69
2024-02-02T18:43:21.189Z,98152.69
2024-02-02T18:45:48.372Z,98150.59
2024-02-02T18:48:15.958Z,98129.38
2024-02-02T18:50:43.594Z,98137.00
2024-02-02T18:53:10.616Z,98139.59
2024-02-02T18:55:37.632Z,98135.31
2024-02-02T18:58:04.844Z,98142.56
2024-02-02T19:00:32.238Z,98131.56
2024-02-02T19:02:59.379Z,98124.41
2024-02-02T19:05:26.649Z,98133.34
2024-02-02T19:07:53.752Z,98126.13
2024-02-02T19:10:21.360Z,98130.91
2024-02-02T19:12:48.533Z,98129.72
2024-02-02T19:15:15.768Z,98124.75
2024-02-02T19:17:44.045Z,98124.31
2024-02-02T19:20:12.172Z,98140.88
2024-02-02T19:22:40.112Z,98123.06
2024-02-02T19:25:07.325Z,98125.84
2024-02-02T19:27:34.589Z,98115.66
2024-02-02T19:30:01.974Z,98114.81
2024-02-02T19:32:29.437Z,98119.72
2024-02-02T19:34:56.678Z,98114.25
2024-02-02T19:37:24.421Z,98105.97
2024-02-02T19:39:51.607Z,98106.09
2024-02-02T19:42:18.740Z,98103.34
2024-02-02T19:44:45.989Z,98096.28
2024-02-02T19:47:15.177Z,98099.44
2024-02-02T19:49:42.683Z,98094.13
2024-02-02T19:52:10.454Z,98104.19
2024-02-02T19:54:38.137Z,98100.63
2024-02-02T19:57:05.691Z,98090.44
2024-02-02T19:59:33.024Z,98099.94
2024-02-02T20:02:03.178Z,98101.16
2024-02-02T20:04:30.932Z,98093.84
2024-02-02T20:06:58.284Z,98108.78
2024-02-02T20:09:25.838Z,98094.00
2024-02-02T20:11:53.151Z,98094.72
2024-02-02T20:14:20.169Z,98096.50
2024-02-02T20:16:48.891Z,98092.53
2024-02-02T20:19:17.414Z,98099.75
2024-02-02T20:21:44.688Z,98097.66
2024-02-02T20:24:11.989Z,98100.66
2024-02-02T20:26:39.308Z,98089.50
2024-02-02T20:29:06.482Z,98092.13
2024-02-02T20:31:33.898Z,98078.44
2024-02-02T20:34:01.422Z,98076.44
2024-02-02T20:36:31.102Z,98067.66
2024-02-02T20:38:58.284Z,98055.94
2024-02-02T20:41:26.928Z,98059.16
2024-02-02T20:43:59.126Z,98052.47
2024-02-02T20:46:26.853Z,98057.91
2024-02-02T20:48:54.315Z,98057.97
2024-02-02T20:51:22.400Z,98050.53
2024-02-02T20:53:50.031Z,98052.59
2024-02-02T20:56:17.347Z,98038.88
2024-02-02T20:58:44.369Z,98044.06
2024-02-02T21:01:11.959Z,98043.75
2024-02-02T21:03:39.277Z,98043.56
2024-02-02T21:06:06.957Z,98035.16
2024-02-02T21:08:34.044Z,98027.81
2024-02-02T21:11:01.306Z,98031.44
2024-02-02T21:13:28.537Z,98010.28
2024-02-02T21:15:56.015Z,98027.19
2024-02-02T21:18:24.782Z,98025.28
2024-02-02T21:20:54.392Z,98026.41
2024-02-02T21:23:21.685Z,98029.13
2024-02-02T21:25:49.279Z,98023.41
2024-02-02T21:28:18.388Z,98021.25
2024-02-02T21:30:45.581Z,98024.72
2024-02-02T21:33:13.591Z,98035.34
2024-02-02T21:35:42.014Z,98038.22
2024-02-02T21:38:09.297Z,98034.78
2024-02-02T21:40:36.746Z,98032.41
2024-02-02T21:43:04.397Z,98026.84
2024-02-02T21:45:34.036Z,98021.44
2024-02-02T21:48:01.384Z,98022.06
2024-02-02T21:50:28.606Z,98009.91
2024-02-02T21:52:55.865Z,98018.47
2024-02-02T21:55:22.951Z,98024.84
2024-02-02T21:57:50.373Z,98020.25
2024-02-02T22:00:18.112Z,98041.31
2024-02-02T22:02:46.884Z,98029.25
2024-02-02T22:05:14.634Z,98030.94
2024-02-02T22:07:42.215Z,98023.56
2024-02-02T22:10:09.904Z,98024.88
2024-02-02T22:12:36.961Z,98036.59
2024-02-02T22:15:04.942Z,98030.25
2024-02-02T22:17:32.480Z,98025.69
2024-02-02T22:19:59.993Z,98040.38
2024-02-02T22:22:27.052Z,98037.53
2024-02-02T22:24:54.285Z,98041.06
2024-02-02T22:27:23.690Z,98040.47
2024-02-02T22:29:51.488Z,98026.81
2024-02-02T22:32:21.496Z,98031.91
2024-02-02T22:34:51.900Z,98022.75
2024-02-02T22:37:19.094Z,98018.47
2024-02-02T22:39:46.217Z,98021.09
2024-02-02T22:42:13.321Z,98013.94
2024-02-02T22:44:40.339Z,98018.91
2024-02-02T22:47:07.344Z,98024.69
2024-02-02T22:49:35.222Z,98024.75
2024-02-02T22:52:02.582Z,98028.03
2024-02-02T22:54:30.075Z,98042.25
2024-02-02T22:56:57.184Z,98034.63
2024-02-02T22:59:24.276Z,98017.47
